메인 페이지
METAR-TAF:

METAR-TAF

공항 :

바마코, 말리

위도: 12-32N, 경도: 007-57W, 고도: 380m

현재 날씨관측

예보는 40분 전, 22:00시(UTC)에 발표되었습니다.
남서9kt
온도 30°C
습도 55%
기압 1014 hPa
시정 10km 이상
고도 3000ft 상공 구름 조금

METAR: GABS 182200Z 23009KT 9999 FEW030 30/20 Q1014 TEMPO 09015G35KT 4000 DU SQ TSRA

시각: 22:40 (22:40 UTC)

예보

예보는 5 시간 40분 전, 17:00시(UTC)에 발표되었습니다.
예보 대상 시간: 18일 18시부터 19일 24시까지 (UTC)
남남서10kt
시정 10km 이상
고도 2600ft 상공 구름 조금
일시적
18일 23시부터 19일 04시까지 (UTC)
동북동20kt, 순간 최대 풍속 45kt
시정: 1000m
고도 3000ft 상공 구름 많음
고도 3000ft 상공 구름 보통, 적란운.
날린먼지, 뇌우, 비
확률 40% :
일시적
19일 05시부터 19일 09시까지 (UTC)
고도 2600ft 상공 구름 보통
고도 3000ft 상공 구름 조금, 적란운.
뇌우, 소나기

TAF: GABS 181700Z 1818/1924 21010KT 9999 FEW026 TEMPO 1823/1904 06020G45KT 1000 BLDU TSRA BKN030 SCT030CB PROB40 TEMPO 1905/1909 TS SHRA SCT026 FEW030CB

4,000개 이상의 공항 관측 자료 및 예보 (METAR 및 TAF 보고).

지도상에서 검색 가능한 기상관측소가 노란 점과 빨간 점으로 표시되어 있습니다.

기상관측소 명을 보려면 표시 위로 마우스를 이동하세요.

날씨 관측과 예보를 보려면 클릭하세요.

지도 변경 : 확대하려면 엑스 표시가 있는 녹색 버튼, 축소하려면 빼기 표시가 있는 녹색 버튼, 다음 페이지의 지도를 보려면 녹색 화살표를 클릭하세요.


METAR-TAF: